Time;durP1;ratioP1;P1;durP2;ratioP2;P2;SDS_P1;SDS_P2;PMS_P1;PMS_P2;Temp;Humidity;BMP_temperature;BMP_pressure;BME280_temperature;BME280_humidity;BME280_pressure;Samples;Min_cycle;Max_cycle;Signal;HPM_P1;HPM_P2
2022/12/31 00:01:13;;;;;;;0.80;0.80;;;13.10;99.90;;;;;;5005066;28;20026;-76
2022/12/31 00:03:40;;;;;;;0.68;0.65;;;13.10;99.90;;;;;;4990537;28;20034;-76
2022/12/31 00:06:33;;;;;;;0.55;0.50;;;13.10;99.90;;;;;;4990042;28;20105;-76
2022/12/31 00:09:00;;;;;;;0.93;0.57;;;13.20;99.90;;;;;;4987696;28;20465;-76
2022/12/31 00:11:28;;;;;;;0.60;0.60;;;13.20;99.90;;;;;;4987573;28;20038;-76
2022/12/31 00:13:54;;;;;;;0.68;0.68;;;13.20;99.90;;;;;;4972732;28;20031;-76
2022/12/31 00:16:27;;;;;;;0.70;0.70;;;13.20;99.90;;;;;;4989913;28;20121;-76
2022/12/31 00:18:55;;;;;;;0.80;0.80;;;13.20;99.90;;;;;;4987349;28;20027;-76
2022/12/31 00:21:22;;;;;;;0.60;0.52;;;13.20;99.90;;;;;;4990265;28;20050;-76
2022/12/31 00:23:48;;;;;;;0.32;0.32;;;13.20;99.90;;;;;;4990420;28;20026;-76
2022/12/31 00:26:16;;;;;;;0.40;0.28;;;13.20;99.90;;;;;;4990177;28;20027;-76
2022/12/31 00:28:43;;;;;;;0.60;0.60;;;13.10;99.90;;;;;;4990385;28;20023;-76
2022/12/31 00:31:18;;;;;;;1.02;0.68;;;13.20;99.90;;;;;;4990282;28;20035;-76
2022/12/31 00:33:44;;;;;;;0.90;0.90;;;13.10;99.90;;;;;;4988621;28;20174;-76
2022/12/31 00:36:15;;;;;;;0.90;0.90;;;13.10;99.90;;;;;;4990222;28;20089;-76
2022/12/31 00:38:43;;;;;;;0.98;0.98;;;13.10;99.90;;;;;;4989128;28;20110;-76
2022/12/31 00:41:11;;;;;;;0.57;0.57;;;13.10;99.90;;;;;;4989645;28;20090;-76
2022/12/31 00:43:37;;;;;;;0.52;0.45;;;13.20;99.90;;;;;;4989959;28;20025;-76
2022/12/31 00:46:04;;;;;;;0.70;0.65;;;13.20;99.90;;;;;;5005086;28;20035;-76
2022/12/31 00:48:30;;;;;;;1.20;1.15;;;13.20;99.90;;;;;;5004879;28;20477;-76
2022/12/31 00:50:57;;;;;;;1.05;0.73;;;13.20;99.90;;;;;;4989709;28;20023;-76
2022/12/31 00:53:23;;;;;;;6.72;1.05;;;13.20;99.90;;;;;;4989945;28;20043;-76
2022/12/31 00:55:50;;;;;;;2.42;0.85;;;13.20;99.90;;;;;;4989688;28;20113;-76
2022/12/31 00:58:15;;;;;;;0.40;0.40;;;13.40;99.90;;;;;;4989647;28;20023;-76
2022/12/31 01:00:42;;;;;;;0.60;0.50;;;13.30;99.90;;;;;;4988357;28;20069;-76
2022/12/31 01:03:08;;;;;;;0.45;0.45;;;13.30;99.90;;;;;;4988305;28;20122;-76
2022/12/31 01:05:35;;;;;;;0.40;0.40;;;13.30;99.90;;;;;;4989399;28;20030;-76
2022/12/31 01:08:02;;;;;;;0.38;0.38;;;13.30;99.90;;;;;;4988435;28;20054;-76
2022/12/31 01:13:12;;;;;;;0.40;0.40;;;13.40;99.90;;;;;;4989542;28;20038;-77
2022/12/31 01:15:38;;;;;;;0.30;0.30;;;13.50;99.90;;;;;;4989574;28;20035;-76
2022/12/31 01:18:06;;;;;;;0.25;0.25;;;13.50;99.90;;;;;;4988338;28;20041;-76
2022/12/31 01:20:39;;;;;;;0.20;0.20;;;13.60;99.90;;;;;;5003952;28;20031;-76
2022/12/31 01:23:06;;;;;;;20.05;0.75;;;13.60;99.90;;;;;;4987755;28;20383;-76
2022/12/31 01:25:40;;;;;;;0.40;0.40;;;13.60;99.90;;;;;;4989389;28;20038;-76
2022/12/31 01:28:07;;;;;;;0.32;0.32;;;13.60;99.90;;;;;;4989241;28;20035;-76
2022/12/31 01:30:32;;;;;;;0.32;0.32;;;13.60;99.90;;;;;;4978604;28;20031;-76
2022/12/31 01:32:58;;;;;;;0.00;0.00;;;13.70;99.90;;;;;;4968473;28;20031;-76
2022/12/31 01:35:24;;;;;;;0.20;0.20;;;13.70;99.90;;;;;;4974942;28;20031;-76
2022/12/31 01:37:50;;;;;;;0.30;0.30;;;13.80;99.90;;;;;;4987428;28;20042;-76
2022/12/31 01:40:17;;;;;;;0.32;0.32;;;13.80;99.90;;;;;;4989125;28;20047;-76
2022/12/31 01:42:42;;;;;;;2.35;0.38;;;13.80;99.90;;;;;;4988940;28;20023;-76
2022/12/31 01:45:12;;;;;;;0.00;0.00;;;13.90;99.90;;;;;;4988841;28;20045;-76
2022/12/31 01:47:40;;;;;;;;;;;13.90;99.90;;;;;;4989486;28;20046;-76
2022/12/31 01:50:19;;;;;;;0.10;0.10;;;13.90;99.90;;;;;;4987453;28;20272;-76
2022/12/31 01:52:48;;;;;;;0.00;0.00;;;13.90;99.90;;;;;;4987174;28;20030;-76
2022/12/31 01:55:20;;;;;;;0.80;0.40;;;13.90;99.90;;;;;;5003651;28;20039;-76
2022/12/31 01:57:50;;;;;;;0.00;0.00;;;13.90;99.90;;;;;;5003842;28;20034;-76
2022/12/31 02:00:17;;;;;;;;;;;13.80;99.90;;;;;;4987620;28;20054;-76
2022/12/31 02:02:43;;;;;;;0.22;0.20;;;13.80;99.90;;;;;;4988642;28;19924;-76
2022/12/31 02:05:24;;;;;;;0.15;0.15;;;13.80;99.90;;;;;;4988198;28;20034;-76
2022/12/31 02:07:52;;;;;;;0.10;0.10;;;13.70;99.90;;;;;;4988341;28;20034;-76
2022/12/31 02:10:18;;;;;;;0.50;0.32;;;13.70;99.90;;;;;;4988463;28;20037;-76
2022/12/31 02:12:45;;;;;;;0.10;0.10;;;13.70;99.90;;;;;;4988426;28;20046;-76
2022/12/31 02:15:11;;;;;;;1.13;0.20;;;13.70;99.90;;;;;;4988036;28;20400;-76
2022/12/31 02:18:05;;;;;;;0.20;0.10;;;13.60;99.90;;;;;;4986867;28;20035;-76
2022/12/31 02:21:03;;;;;;;0.75;0.50;;;13.60;99.90;;;;;;4987080;28;20038;-76
2022/12/31 02:23:51;;;;;;;4.35;0.40;;;13.60;99.90;;;;;;4968829;28;20099;-76
2022/12/31 02:26:38;;;;;;;0.40;0.10;;;13.50;99.90;;;;;;4968627;28;20035;-76
2022/12/31 02:29:34;;;;;;;0.20;0.10;;;13.50;99.90;;;;;;4968754;28;20023;-76
2022/12/31 02:32:04;;;;;;;0.68;0.20;;;13.40;99.90;;;;;;4968594;28;20031;-76
2022/12/31 02:35:11;;;;;;;0.10;0.10;;;13.40;99.90;;;;;;4968502;28;20035;-75
2022/12/31 02:37:42;;;;;;;0.32;0.17;;;13.30;99.90;;;;;;4966239;29;20125;-75
2022/12/31 02:40:13;;;;;;;1.55;0.10;;;13.20;99.90;;;;;;4950280;29;20039;-76
2022/12/31 02:42:39;;;;;;;0.25;0.25;;;13.20;99.90;;;;;;4977364;28;20038;-76
2022/12/31 02:45:08;;;;;;;0.20;0.05;;;13.20;99.90;;;;;;4986507;28;20023;-76
2022/12/31 02:47:45;;;;;;;1.75;0.00;;;13.10;99.90;;;;;;4987500;28;20105;-76
2022/12/31 02:50:54;;;;;;;0.00;0.00;;;13.10;99.90;;;;;;4987380;28;20031;-75
2022/12/31 02:53:37;;;;;;;0.20;0.20;;;13.00;99.90;;;;;;4984476;28;20042;-75
2022/12/31 02:56:13;;;;;;;0.00;0.00;;;13.00;99.90;;;;;;4986440;28;20031;-76
2022/12/31 03:02:13;;;;;;;3.40;0.10;;;13.00;99.90;;;;;;4987209;28;20484;-75
2022/12/31 03:04:45;;;;;;;0.00;0.00;;;12.90;99.90;;;;;;4986438;28;20035;-75
2022/12/31 03:07:22;;;;;;;0.10;0.10;;;12.90;99.90;;;;;;4986408;28;20030;-76
2022/12/31 03:09:49;;;;;;;0.00;0.00;;;13.00;99.90;;;;;;4986041;28;20548;-76
2022/12/31 03:15:00;;;;;;;0.00;0.00;;;13.00;99.90;;;;;;4986119;28;20038;-75
2022/12/31 03:17:26;;;;;;;0.03;0.00;;;12.90;99.90;;;;;;4986897;28;20031;-76
2022/12/31 03:22:41;;;;;;;1.20;0.40;;;13.00;99.90;;;;;;4985833;28;20050;-76
2022/12/31 03:27:54;;;;;;;0.40;0.40;;;13.20;99.90;;;;;;4985359;28;20143;-76
2022/12/31 03:30:21;;;;;;;0.35;0.20;;;13.40;99.90;;;;;;4981706;28;20080;-75
2022/12/31 03:32:48;;;;;;;4.93;0.30;;;13.50;99.90;;;;;;4972947;28;20022;-76
2022/12/31 03:35:16;;;;;;;0.10;0.10;;;13.60;99.90;;;;;;4985852;28;20027;-75
2022/12/31 03:37:42;;;;;;;0.80;0.55;;;13.60;99.90;;;;;;4985873;28;20113;-76
2022/12/31 03:40:11;;;;;;;0.15;0.15;;;13.80;99.90;;;;;;4987064;28;20027;-75
2022/12/31 03:42:37;;;;;;;1.10;0.10;;;13.80;99.90;;;;;;4986970;28;20039;-76
2022/12/31 03:45:04;;;;;;;1.35;0.60;;;13.80;99.90;;;;;;4985581;28;20035;-76
2022/12/31 03:47:29;;;;;;;1.65;0.95;;;13.80;99.90;;;;;;5001899;28;20026;-76
2022/12/31 03:49:55;;;;;;;2.75;0.50;;;13.90;99.90;;;;;;4986509;28;20077;-76
2022/12/31 03:52:22;;;;;;;0.90;0.75;;;13.90;99.90;;;;;;4986974;28;20102;-75
2022/12/31 03:54:47;;;;;;;3.38;1.17;;;14.00;99.90;;;;;;4986955;28;20019;-75
2022/12/31 03:57:13;;;;;;;0.13;0.13;;;14.00;99.90;;;;;;4986759;28;20030;-76
2022/12/31 03:59:39;;;;;;;0.32;0.25;;;14.00;99.90;;;;;;4986856;28;20408;-75
2022/12/31 04:02:06;;;;;;;0.80;0.50;;;14.10;99.90;;;;;;4986731;28;20097;-76
2022/12/31 04:04:32;;;;;;;2.22;0.50;;;14.10;99.90;;;;;;4986402;28;20041;-75
2022/12/31 04:06:58;;;;;;;8.55;1.33;;;14.10;99.90;;;;;;4986677;28;20043;-76
2022/12/31 04:09:23;;;;;;;2.10;0.38;;;14.20;99.90;;;;;;4985635;28;20449;-76
2022/12/31 04:11:49;;;;;;;1.23;0.68;;;14.20;99.90;;;;;;4986585;28;20035;-75
2022/12/31 04:14:16;;;;;;;0.70;0.63;;;14.30;99.90;;;;;;4985760;28;20035;-75
2022/12/31 04:16:42;;;;;;;0.65;0.50;;;14.30;99.90;;;;;;4986650;28;20042;-75
2022/12/31 04:19:09;;;;;;;0.50;0.40;;;14.30;99.90;;;;;;4986531;28;20058;-76
2022/12/31 04:21:35;;;;;;;2.33;0.88;;;14.30;99.90;;;;;;4986378;28;20039;-76
2022/12/31 04:24:01;;;;;;;0.68;0.22;;;14.40;99.90;;;;;;4985358;28;20015;-76
2022/12/31 04:26:28;;;;;;;2.25;0.68;;;14.50;99.90;;;;;;4985332;28;20039;-76
2022/12/31 04:28:54;;;;;;;0.75;0.45;;;14.50;99.90;;;;;;4986740;28;20030;-76
2022/12/31 04:31:19;;;;;;;1.05;0.70;;;14.60;99.90;;;;;;4975548;28;20035;-76
2022/12/31 04:33:45;;;;;;;1.40;1.08;;;14.70;99.90;;;;;;4965889;28;20043;-76
2022/12/31 04:36:11;;;;;;;1.45;1.08;;;14.70;99.90;;;;;;4981352;28;20041;-76
2022/12/31 04:38:37;;;;;;;2.50;1.30;;;14.70;99.90;;;;;;4987289;28;20037;-76
2022/12/31 04:41:19;;;;;;;1.15;0.50;;;14.70;99.90;;;;;;4989960;28;20041;-76
2022/12/31 04:43:53;;;;;;;2.70;0.52;;;14.70;99.90;;;;;;4990128;28;20027;-76
2022/12/31 04:46:25;;;;;;;0.30;0.30;;;14.80;99.90;;;;;;4990076;28;20030;-75
2022/12/31 04:48:52;;;;;;;1.90;0.47;;;14.90;99.90;;;;;;4990008;28;20042;-76
2022/12/31 04:51:18;;;;;;;0.63;0.20;;;14.90;99.90;;;;;;4989572;28;20030;-76
2022/12/31 04:53:44;;;;;;;1.67;0.63;;;14.90;99.90;;;;;;4990134;28;20030;-75
2022/12/31 04:56:10;;;;;;;3.42;1.63;;;15.00;99.90;;;;;;4989725;28;20035;-76
2022/12/31 04:58:37;;;;;;;0.70;0.70;;;15.10;99.90;;;;;;4989651;28;20054;-76
2022/12/31 05:01:04;;;;;;;2.15;0.65;;;15.10;99.90;;;;;;5004733;28;20038;-76
2022/12/31 05:03:30;;;;;;;2.63;1.02;;;15.10;99.90;;;;;;4988321;28;20126;-76
2022/12/31 05:06:22;;;;;;;1.55;0.52;;;15.10;99.90;;;;;;4988128;28;20391;-76
2022/12/31 05:08:49;;;;;;;0.52;0.50;;;15.00;99.90;;;;;;4986067;28;20039;-75
2022/12/31 05:11:16;;;;;;;1.15;0.63;;;15.00;99.90;;;;;;5004541;28;20058;-76
2022/12/31 05:13:42;;;;;;;1.00;0.75;;;14.90;99.90;;;;;;4989614;28;20034;-75
2022/12/31 05:16:09;;;;;;;3.95;0.70;;;14.80;99.90;;;;;;4989487;28;20093;-76
2022/12/31 05:18:35;;;;;;;1.35;0.30;;;14.70;99.90;;;;;;5004344;28;20090;-76
2022/12/31 05:21:02;;;;;;;3.03;1.13;;;14.70;99.90;;;;;;4988263;28;20110;-76
2022/12/31 05:23:28;;;;;;;0.38;0.32;;;14.70;99.90;;;;;;5003740;28;20678;-76
2022/12/31 05:25:55;;;;;;;1.73;0.50;;;14.60;99.90;;;;;;5003482;28;20038;-76
2022/12/31 05:28:21;;;;;;;0.75;0.40;;;14.60;99.90;;;;;;4988849;28;20066;-76
2022/12/31 05:30:48;;;;;;;1.13;0.73;;;14.50;99.90;;;;;;4984171;28;20083;-76
2022/12/31 05:33:14;;;;;;;0.90;0.68;;;14.50;99.90;;;;;;4969651;28;20054;-76
2022/12/31 05:35:40;;;;;;;2.38;0.65;;;14.50;99.90;;;;;;4968615;28;20027;-76
2022/12/31 05:38:06;;;;;;;4.57;0.73;;;14.60;99.90;;;;;;4969072;28;20031;-76
2022/12/31 05:40:32;;;;;;;0.43;0.43;;;14.60;99.90;;;;;;4977211;28;20038;-75
2022/12/31 05:42:58;;;;;;;3.63;1.52;;;14.70;99.90;;;;;;4981815;28;20377;-76
2022/12/31 05:45:24;;;;;;;2.08;0.65;;;14.70;99.90;;;;;;4978531;28;20038;-76
2022/12/31 05:47:50;;;;;;;1.38;0.63;;;14.80;99.90;;;;;;4984107;28;20024;-76
2022/12/31 05:50:16;;;;;;;2.08;0.95;;;14.90;99.90;;;;;;4960906;28;20086;-76
2022/12/31 05:52:43;;;;;;;0.57;0.57;;;14.90;99.90;;;;;;4987883;28;20019;-76
2022/12/31 05:55:10;;;;;;;2.47;0.98;;;14.90;99.90;;;;;;4988667;28;20019;-76
2022/12/31 05:57:37;;;;;;;1.65;0.57;;;14.90;99.90;;;;;;4982880;28;20027;-76
2022/12/31 06:00:05;;;;;;;1.25;0.60;;;15.10;99.90;;;;;;4970822;28;20031;-76
2022/12/31 06:02:39;;;;;;;3.10;0.75;;;15.20;99.90;;;;;;4987257;28;20086;-76
2022/12/31 06:05:06;;;;;;;0.70;0.70;;;15.20;99.90;;;;;;4971181;28;20038;-76
2022/12/31 06:07:32;;;;;;;1.13;0.50;;;15.20;99.90;;;;;;4970815;28;20019;-76
2022/12/31 06:09:58;;;;;;;0.28;0.28;;;15.20;99.90;;;;;;4970553;28;20051;-76
2022/12/31 06:12:24;;;;;;;2.28;0.40;;;15.20;99.90;;;;;;4967453;28;20481;-76
2022/12/31 06:14:49;;;;;;;3.97;0.60;;;15.30;99.90;;;;;;4971487;28;20033;-76
2022/12/31 06:17:15;;;;;;;0.55;0.32;;;15.40;99.90;;;;;;4985742;28;20091;-76
2022/12/31 06:19:41;;;;;;;1.10;0.80;;;15.30;99.90;;;;;;4970177;28;20038;-76
2022/12/31 06:22:07;;;;;;;1.85;0.40;;;15.30;99.90;;;;;;4970162;28;20400;-76
2022/12/31 06:24:33;;;;;;;0.40;0.30;;;15.50;99.90;;;;;;4986261;28;20037;-76
2022/12/31 06:26:59;;;;;;;2.28;1.00;;;15.50;99.90;;;;;;4986687;28;20034;-76
2022/12/31 06:29:24;;;;;;;2.40;1.02;;;15.60;99.90;;;;;;4967067;28;20031;-75
2022/12/31 06:31:50;;;;;;;1.80;0.80;;;15.70;99.90;;;;;;4968003;28;20594;-75
2022/12/31 06:34:17;;;;;;;4.15;1.15;;;15.60;99.90;;;;;;4986624;28;20166;-76
2022/12/31 06:36:42;;;;;;;0.98;0.52;;;15.70;99.90;;;;;;4985248;28;20035;-76
2022/12/31 06:39:08;;;;;;;0.30;0.30;;;15.70;99.90;;;;;;4987207;28;20039;-75
2022/12/31 06:41:35;;;;;;;4.93;0.60;;;15.60;99.90;;;;;;4986058;28;20042;-77
2022/12/31 06:44:00;;;;;;;0.32;0.32;;;15.70;99.90;;;;;;4985202;28;20027;-76
2022/12/31 06:46:26;;;;;;;0.43;0.40;;;15.70;99.90;;;;;;4987563;28;20042;-76
2022/12/31 06:48:52;;;;;;;1.77;0.60;;;15.80;99.90;;;;;;4985695;28;20037;-76
2022/12/31 06:51:20;;;;;;;0.30;0.30;;;15.70;99.90;;;;;;4985805;28;20047;-76
2022/12/31 06:53:48;;;;;;;4.38;0.95;;;15.60;99.90;;;;;;4986010;28;20027;-76
2022/12/31 06:56:16;;;;;;;0.93;0.68;;;15.60;99.90;;;;;;4987044;28;20031;-76
2022/12/31 06:58:43;;;;;;;0.57;0.57;;;15.60;99.90;;;;;;4986636;28;20031;-76
2022/12/31 07:01:31;;;;;;;1.63;1.08;;;15.60;99.90;;;;;;4969335;28;20027;-75
2022/12/31 07:04:09;;;;;;;1.20;0.47;;;15.60;99.90;;;;;;4980536;28;20027;-76
2022/12/31 07:06:51;;;;;;;0.43;0.43;;;15.60;99.90;;;;;;4985885;28;20026;-76
2022/12/31 07:09:50;;;;;;;1.08;1.05;;;15.70;99.90;;;;;;4986980;28;20135;-75
2022/12/31 07:12:22;;;;;;;2.25;0.35;;;15.70;99.90;;;;;;4986792;28;20034;-76
2022/12/31 07:14:56;;;;;;;5.00;0.82;;;15.70;99.90;;;;;;4986817;28;20018;-75
2022/12/31 07:17:35;;;;;;;1.63;0.70;;;15.60;99.90;;;;;;4969413;28;20393;-75
2022/12/31 07:20:07;;;;;;;1.88;0.47;;;15.60;99.90;;;;;;4985194;28;20039;-76
2022/12/31 07:22:33;;;;;;;1.05;0.43;;;15.60;99.90;;;;;;4985535;28;20035;-75
2022/12/31 07:25:02;;;;;;;4.43;1.48;;;15.50;99.90;;;;;;4986796;28;20027;-75
2022/12/31 07:27:28;;;;;;;5.18;0.73;;;15.60;99.90;;;;;;4981703;28;20090;-74
2022/12/31 07:30:10;;;;;;;4.65;0.88;;;15.60;99.90;;;;;;4984894;28;20143;-74
2022/12/31 07:33:01;;;;;;;3.60;0.93;;;15.60;99.90;;;;;;4984882;28;20038;-74
2022/12/31 07:35:55;;;;;;;2.25;1.85;;;15.70;99.90;;;;;;4985043;28;20026;-75
2022/12/31 07:38:47;;;;;;;1.63;1.05;;;15.70;99.90;;;;;;4985801;28;20031;-75
2022/12/31 07:41:12;;;;;;;0.65;0.65;;;15.70;99.90;;;;;;4983615;28;20027;-75
2022/12/31 07:43:53;;;;;;;5.35;0.70;;;15.90;99.90;;;;;;4982900;28;20038;-75
2022/12/31 07:46:57;;;;;;;1.35;1.25;;;15.70;99.90;;;;;;4984048;28;20026;-75
2022/12/31 07:49:25;;;;;;;5.57;2.22;;;15.70;99.90;;;;;;4985622;28;20027;-75
2022/12/31 07:51:51;;;;;;;6.22;4.80;;;15.60;99.90;;;;;;4984243;28;20026;-75
2022/12/31 07:54:17;;;;;;;5.07;2.05;;;15.50;99.90;;;;;;4984117;28;20031;-75
2022/12/31 07:56:43;;;;;;;6.30;4.85;;;15.40;99.90;;;;;;4986152;28;20099;-75
2022/12/31 07:59:27;;;;;;;6.85;5.18;;;15.30;99.90;;;;;;4984622;28;20113;-74
2022/12/31 08:02:16;;;;;;;6.50;4.75;;;15.40;99.90;;;;;;4984082;28;20026;-75
2022/12/31 08:05:07;;;;;;;1.85;0.90;;;15.50;99.90;;;;;;4976138;28;20477;-74
2022/12/31 08:07:42;;;;;;;2.65;1.83;;;15.60;99.90;;;;;;4985482;28;20046;-74
2022/12/31 08:10:28;;;;;;;1.52;0.55;;;15.60;99.90;;;;;;4985950;28;20027;-74
2022/12/31 08:13:00;;;;;;;4.15;1.88;;;15.60;99.90;;;;;;4986945;28;20033;-75
2022/12/31 08:15:26;;;;;;;1.20;0.95;;;15.60;99.90;;;;;;4990074;28;20033;-74
2022/12/31 08:17:52;;;;;;;1.27;0.80;;;15.60;99.90;;;;;;4989377;28;20027;-75
2022/12/31 08:20:18;;;;;;;2.72;0.45;;;15.70;99.90;;;;;;4989588;28;20030;-75
2022/12/31 08:23:23;;;;;;;3.10;1.30;;;15.70;99.90;;;;;;4989637;28;20038;-75
2022/12/31 08:25:58;;;;;;;1.27;0.98;;;15.70;99.90;;;;;;4988130;28;20128;-75
2022/12/31 08:29:05;;;;;;;2.10;0.95;;;15.70;99.90;;;;;;4971908;28;20400;-75
2022/12/31 08:31:57;;;;;;;0.45;0.40;;;15.80;99.90;;;;;;4982518;28;20043;-75
2022/12/31 08:35:01;;;;;;;1.98;0.75;;;15.70;99.90;;;;;;4988059;28;20031;-75
2022/12/31 08:37:41;;;;;;;5.20;1.02;;;15.70;99.90;;;;;;4981883;28;20043;-75
2022/12/31 08:40:37;;;;;;;0.82;0.82;;;15.60;99.90;;;;;;4987484;28;20574;-75
2022/12/31 08:43:24;;;;;;;1.10;0.77;;;15.60;99.90;;;;;;4988710;28;20030;-75
2022/12/31 08:45:52;;;;;;;4.35;0.40;;;15.60;99.90;;;;;;4987569;28;20027;-75
2022/12/31 08:48:34;;;;;;;0.60;0.60;;;15.70;99.90;;;;;;4971786;28;20026;-75
2022/12/31 08:51:00;;;;;;;11.90;1.25;;;15.70;99.90;;;;;;4988414;28;20109;-75
2022/12/31 08:53:26;;;;;;;1.10;0.55;;;15.70;99.90;;;;;;4971498;28;20099;-75
2022/12/31 08:56:06;;;;;;;4.93;1.42;;;15.70;99.90;;;;;;4970955;28;20537;-75
2022/12/31 08:58:42;;;;;;;1.10;0.70;;;15.80;99.90;;;;;;4986929;28;20038;-74
2022/12/31 09:01:10;;;;;;;1.00;0.70;;;15.80;99.90;;;;;;4985530;28;20066;-75
2022/12/31 09:03:53;;;;;;;1.92;0.90;;;15.80;99.90;;;;;;4983649;28;20027;-75
2022/12/31 09:06:34;;;;;;;0.93;0.47;;;15.80;99.90;;;;;;4986399;28;20093;-74
2022/12/31 09:09:26;;;;;;;5.00;1.02;;;15.70;99.90;;;;;;4999426;28;20051;-74
2022/12/31 09:11:58;;;;;;;1.23;0.80;;;15.70;99.90;;;;;;4961012;28;20468;-74
2022/12/31 09:14:33;;;;;;;3.08;1.45;;;15.70;99.90;;;;;;4970129;28;20054;-74
2022/12/31 09:17:09;;;;;;;2.05;0.47;;;15.80;99.90;;;;;;4975950;28;20054;-73
2022/12/31 09:19:35;;;;;;;1.50;0.68;;;15.80;99.90;;;;;;4986916;28;20037;-73
2022/12/31 09:22:02;;;;;;;3.97;1.13;;;15.70;99.90;;;;;;4986603;28;20491;-73
2022/12/31 09:24:28;;;;;;;3.22;1.33;;;15.70;99.90;;;;;;4986762;28;20031;-73
2022/12/31 09:27:16;;;;;;;2.30;0.82;;;15.70;99.90;;;;;;4983078;28;20055;-74
2022/12/31 09:30:00;;;;;;;2.38;0.77;;;15.80;99.90;;;;;;4979898;28;20019;-75
2022/12/31 09:32:51;;;;;;;1.15;1.02;;;15.80;99.90;;;;;;4980804;28;20035;-73
2022/12/31 09:35:27;;;;;;;3.08;1.05;;;15.90;99.90;;;;;;4986241;28;20480;-76
2022/12/31 09:38:09;;;;;;;1.30;1.08;;;16.10;99.90;;;;;;4981589;28;20038;-75
2022/12/31 09:40:46;;;;;;;4.38;1.40;;;16.10;99.90;;;;;;4984429;28;20037;-74
2022/12/31 09:43:24;;;;;;;8.73;2.72;;;16.20;99.90;;;;;;4985723;28;20030;-75
2022/12/31 09:45:59;;;;;;;2.53;1.67;;;16.40;99.90;;;;;;4985534;28;20046;-75
2022/12/31 09:49:11;;;;;;;1.33;1.23;;;16.40;99.90;;;;;;4987019;28;20031;-75
2022/12/31 09:51:43;;;;;;;2.90;0.88;;;16.40;99.90;;;;;;4987810;28;20027;-74
2022/12/31 09:54:40;;;;;;;2.47;1.13;;;16.40;99.90;;;;;;4985788;28;20066;-73
2022/12/31 09:57:29;;;;;;;5.80;1.58;;;16.50;99.90;;;;;;4987021;28;20035;-73
2022/12/31 10:00:30;;;;;;;3.45;0.65;;;16.60;99.90;;;;;;4984366;28;20058;-76
2022/12/31 10:02:58;;;;;;;2.20;0.80;;;16.60;99.90;;;;;;4980300;28;20473;-76
2022/12/31 10:05:37;;;;;;;6.65;1.27;;;16.70;99.90;;;;;;4983494;28;20037;-76
2022/12/31 10:08:15;;;;;;;3.67;1.02;;;16.80;99.90;;;;;;4983951;28;20054;-73
2022/12/31 10:10:52;;;;;;;2.92;1.02;;;16.70;99.90;;;;;;4985868;28;20030;-75
2022/12/31 10:14:09;;;;;;;3.72;1.95;;;16.70;99.90;;;;;;4985452;28;20058;-76
2022/12/31 10:16:55;;;;;;;5.50;1.50;;;16.60;99.90;;;;;;5000464;28;20035;-76
2022/12/31 10:19:49;;;;;;;1.83;0.90;;;16.70;99.90;;;;;;4985415;28;20050;-74
2022/12/31 10:22:46;;;;;;;4.82;3.15;;;16.60;99.90;;;;;;4975618;28;20050;-76
2022/12/31 10:25:17;;;;;;;1.52;0.88;;;16.80;99.90;;;;;;4987832;28;20027;-75
2022/12/31 10:27:59;;;;;;;2.22;2.13;;;16.90;99.90;;;;;;4986094;28;20031;-76
2022/12/31 10:30:32;;;;;;;8.32;5.22;;;17.00;99.90;;;;;;4987790;28;20018;-74
2022/12/31 10:32:59;;;;;;;9.93;4.55;;;17.00;99.90;;;;;;4987173;28;20035;-76
2022/12/31 10:35:43;;;;;;;6.25;2.60;;;17.00;99.90;;;;;;4987251;28;20055;-76
2022/12/31 10:38:49;;;;;;;4.38;1.23;;;16.90;99.90;;;;;;4985813;28;20065;-76
2022/12/31 10:41:37;;;;;;;7.47;0.80;;;16.80;99.90;;;;;;4986668;28;20127;-75
2022/12/31 10:44:09;;;;;;;6.93;1.95;;;16.70;99.90;;;;;;4987393;28;20085;-76
2022/12/31 10:47:00;;;;;;;3.40;1.45;;;16.70;99.90;;;;;;4970324;28;20026;-76
2022/12/31 10:49:38;;;;;;;1.10;1.00;;;16.70;99.90;;;;;;4987225;28;20027;-74
2022/12/31 10:52:22;;;;;;;6.80;1.63;;;16.70;99.90;;;;;;4986382;28;20443;-74
2022/12/31 10:54:53;;;;;;;5.13;1.73;;;16.70;99.90;;;;;;4987317;28;20473;-76
2022/12/31 10:57:28;;;;;;;3.42;1.88;;;16.70;99.90;;;;;;4986152;28;20039;-76
2022/12/31 10:59:54;;;;;;;3.28;1.58;;;16.80;99.90;;;;;;4986235;28;20408;-76
2022/12/31 11:02:44;;;;;;;3.05;1.38;;;16.80;99.90;;;;;;4987455;28;20031;-76
2022/12/31 11:05:31;;;;;;;4.68;2.88;;;16.70;99.90;;;;;;4986672;28;20030;-75
2022/12/31 11:08:22;;;;;;;3.70;1.65;;;16.70;99.90;;;;;;4983216;28;20034;-75
2022/12/31 11:11:16;;;;;;;1.73;1.35;;;16.70;99.90;;;;;;4973780;28;20058;-76
2022/12/31 11:14:07;;;;;;;7.68;5.45;;;16.60;99.90;;;;;;4983841;28;20031;-74
2022/12/31 11:17:15;;;;;;;10.95;6.82;;;16.60;99.90;;;;;;4986274;28;20033;-76
2022/12/31 11:20:09;;;;;;;9.77;5.25;;;16.70;99.90;;;;;;4984105;28;20030;-75
2022/12/31 11:22:54;;;;;;;5.05;4.30;;;16.70;99.90;;;;;;4985115;28;20034;-74
2022/12/31 11:25:32;;;;;;;5.82;3.83;;;16.60;99.90;;;;;;4985931;28;20031;-75
2022/12/31 11:28:28;;;;;;;3.70;1.23;;;16.60;99.90;;;;;;4984198;28;20091;-74
2022/12/31 11:31:11;;;;;;;10.98;5.30;;;16.60;99.90;;;;;;4983497;28;20050;-75
2022/12/31 11:33:47;;;;;;;18.17;11.50;;;16.60;99.90;;;;;;4983725;28;20034;-74
2022/12/31 11:36:25;;;;;;;3.38;2.00;;;16.50;99.90;;;;;;4985437;28;20041;-74
2022/12/31 11:39:29;;;;;;;6.45;3.55;;;16.50;99.90;;;;;;4984612;28;20041;-74
2022/12/31 11:42:19;;;;;;;3.28;2.15;;;16.50;99.90;;;;;;4983781;28;20041;-74
2022/12/31 11:44:56;;;;;;;14.38;4.05;;;16.50;99.90;;;;;;4986272;28;20120;-74
2022/12/31 11:47:36;;;;;;;4.47;2.65;;;16.50;99.90;;;;;;4985292;28;20027;-75
2022/12/31 11:50:34;;;;;;;2.22;2.03;;;16.50;99.90;;;;;;4986656;28;20098;-74
2022/12/31 11:53:06;;;;;;;2.67;2.47;;;16.60;99.90;;;;;;4983277;28;20022;-73
2022/12/31 11:55:57;;;;;;;9.10;2.22;;;16.50;99.90;;;;;;4964031;28;20028;-74
2022/12/31 11:58:27;;;;;;;3.97;1.88;;;16.70;99.90;;;;;;4961825;28;20027;-74
2022/12/31 12:01:10;;;;;;;2.10;1.38;;;16.40;99.90;;;;;;4976540;28;20051;-74
2022/12/31 12:03:41;;;;;;;1.42;1.33;;;16.30;99.90;;;;;;5001738;28;20555;-74
2022/12/31 12:06:25;;;;;;;6.95;1.33;;;16.30;99.90;;;;;;4967664;28;20035;-74
2022/12/31 12:08:55;;;;;;;3.80;0.90;;;16.20;99.90;;;;;;4967872;28;20027;-74
2022/12/31 12:11:26;;;;;;;5.10;0.82;;;16.00;99.90;;;;;;4981478;28;20026;-74
2022/12/31 12:13:52;;;;;;;1.67;1.17;;;15.90;99.90;;;;;;4969016;28;20079;-74
2022/12/31 12:16:20;;;;;;;5.65;1.30;;;15.90;99.90;;;;;;4985721;28;20022;-75
2022/12/31 12:19:00;;;;;;;4.97;1.25;;;15.90;99.90;;;;;;4986247;28;20027;-75
2022/12/31 12:21:27;;;;;;;1.98;1.42;;;15.90;99.90;;;;;;4985306;28;20065;-75
2022/12/31 12:23:59;;;;;;;8.23;1.42;;;15.90;99.90;;;;;;4982268;28;20030;-75
2022/12/31 12:26:41;;;;;;;2.00;1.20;;;16.00;99.90;;;;;;4998619;28;20118;-74
2022/12/31 12:29:16;;;;;;;5.20;1.45;;;16.10;99.90;;;;;;4986535;28;20062;-74
2022/12/31 12:32:00;;;;;;;2.83;2.45;;;16.20;99.90;;;;;;4986636;28;20101;-74
2022/12/31 12:34:39;;;;;;;2.22;2.08;;;16.20;99.90;;;;;;4982685;28;20031;-74
2022/12/31 12:37:27;;;;;;;4.68;3.75;;;16.20;99.90;;;;;;4974477;28;20030;-74
2022/12/31 12:40:20;;;;;;;4.35;3.22;;;16.20;99.90;;;;;;4985037;28;20424;-74
2022/12/31 12:42:48;;;;;;;5.30;2.05;;;16.30;99.90;;;;;;4963002;28;20065;-75
2022/12/31 12:45:26;;;;;;;2.85;1.60;;;16.30;99.90;;;;;;4984777;28;20089;-76
2022/12/31 12:48:01;;;;;;;5.95;2.67;;;16.40;99.90;;;;;;4977720;28;20384;-74
2022/12/31 12:50:44;;;;;;;4.95;1.98;;;16.40;99.90;;;;;;4967304;28;20031;-76
2022/12/31 12:53:34;;;;;;;5.30;2.38;;;16.50;99.90;;;;;;4968114;28;20026;-76
2022/12/31 12:56:01;;;;;;;2.83;1.55;;;;;;;;;;4965904;28;20027;-76
2022/12/31 12:59:16;;;;;;;2.83;1.60;;;16.60;99.90;;;;;;4967893;28;20103;-75
2022/12/31 13:01:51;;;;;;;3.97;2.03;;;16.60;99.90;;;;;;4939436;29;20055;-73
2022/12/31 13:04:53;;;;;;;2.85;1.58;;;16.60;99.90;;;;;;4948658;29;20045;-73
2022/12/31 13:07:38;;;;;;;5.50;2.42;;;16.50;99.90;;;;;;4955673;29;20099;-73
2022/12/31 13:10:28;;;;;;;2.53;1.52;;;16.50;99.90;;;;;;4949673;29;20043;-75
2022/12/31 13:13:20;;;;;;;3.15;1.40;;;16.50;99.90;;;;;;4950363;29;20033;-73
2022/12/31 13:16:21;;;;;;;4.70;1.90;;;16.40;99.90;;;;;;4933694;29;20064;-75
2022/12/31 13:19:17;;;;;;;1.88;1.48;;;16.30;99.90;;;;;;4952784;29;20047;-73
2022/12/31 13:22:04;;;;;;;4.88;1.35;;;16.20;99.90;;;;;;4948364;29;20068;-75
2022/12/31 13:24:45;;;;;;;1.45;1.35;;;16.10;99.90;;;;;;4949808;29;20026;-73
2022/12/31 13:27:20;;;;;;;1.48;1.38;;;16.10;99.90;;;;;;4950896;29;20023;-73
2022/12/31 13:29:47;;;;;;;4.28;1.88;;;16.00;99.90;;;;;;4949392;29;20031;-75
2022/12/31 13:32:22;;;;;;;4.47;2.35;;;15.90;99.90;;;;;;4949688;29;20028;-76
2022/12/31 13:34:53;;;;;;;7.10;2.55;;;15.80;99.90;;;;;;4949474;29;20031;-74
2022/12/31 13:37:32;;;;;;;6.13;2.75;;;15.80;99.90;;;;;;4948235;29;20485;-73
2022/12/31 13:40:15;;;;;;;7.88;4.40;;;15.90;99.90;;;;;;4949310;29;20036;-75
2022/12/31 13:42:59;;;;;;;4.80;1.83;;;16.00;99.90;;;;;;4945800;29;20036;-75